»·PEaware :: DAL2189 KSLC-KPDX

DAL2189 :: KSLC-KPDX

FLIGHT INFORMATION

Flight Status: Arrived
Operator:
Delta Air Lines
More flights by this operator :: More flights under this callsign
Pilot: Joe P. (13940)
Aircraft: BOEING 737-700
(B737)
More flights by this aircraft type
Origin: KSLC Salt Lake City Intl
United States
Destination: KPDX Portland Intl
United States
More flights between these airports :: More routes between these airports
Route: N0446F380 CGULL1 TWF J15 BOI J163 BKE DCT JOTBA HHOOD4
File this flight plan on PilotEdge
Remarks: KSEA -PBN / A1B1C1D1L1O1S1 NAV / RNVD1E2A1 DOF / 181121 REG / N389DA EET / KZSE0057 RVR / 200 PER / C
Altitude:
(Current/Filed)
380ft
Speed:
(Current/Filed)
446kts
Departed: 21-Nov-18 08:11 AM
Arrived: 21-Nov-18 09:46 AM
Distance/Time
Traveled:
546nm/1:35
Distance/Time
To Go:
Arrived

Flight Plot

Page will automatically refresh every two minutes.

Flight plan parsing failed; only flown route is shown


Map Options




Map Legend


Flown Route
Filed Route
Departure Airport
Arrival Airport
Navaid (VOR, NDB)
Fix

Horizontal Profiles

Position Reports

Time Latitude Longitude Heading Altitude Ground
Speed
21-Nov-18 06:53 40.788533 -111.980747 280 4235ft 0kts
21-Nov-18 06:54 40.788533 -111.980747 280 4235ft 0kts
21-Nov-18 06:55 40.788533 -111.980747 280 4235ft 0kts
21-Nov-18 06:56 40.788533 -111.980747 280 4235ft 0kts
21-Nov-18 06:57 40.788533 -111.980747 280 4235ft 0kts
21-Nov-18 06:58 40.788533 -111.980747 280 4235ft 0kts
21-Nov-18 06:59 40.788533 -111.980747 280 4235ft 0kts
21-Nov-18 07:00 40.788533 -111.980747 280 4235ft 0kts
21-Nov-18 07:01 40.788533 -111.980747 280 4235ft 0kts
21-Nov-18 07:02 40.788533 -111.980747 280 4235ft 0kts
21-Nov-18 07:03 40.788533 -111.980747 280 4235ft 0kts
21-Nov-18 07:04 40.788533 -111.980747 280 4235ft 0kts
21-Nov-18 07:05 40.788533 -111.980747 280 4235ft 0kts
21-Nov-18 07:06 40.788533 -111.980747 280 4235ft 0kts
21-Nov-18 07:07 40.788533 -111.980747 280 4235ft 0kts
21-Nov-18 07:08 40.788533 -111.980747 280 4235ft 0kts
21-Nov-18 07:09 40.788533 -111.980747 280 4235ft 0kts
21-Nov-18 07:10 40.788533 -111.980747 280 4235ft 0kts
21-Nov-18 07:11 40.788533 -111.980747 280 4235ft 0kts
21-Nov-18 07:12 40.788533 -111.980747 280 4235ft 0kts
21-Nov-18 07:13 40.788533 -111.980747 280 4235ft 0kts
21-Nov-18 07:14 40.788533 -111.980747 280 4235ft 0kts
21-Nov-18 07:15 40.788533 -111.980747 280 4235ft 0kts
21-Nov-18 07:16 40.788533 -111.980747 280 4235ft 0kts
21-Nov-18 07:17 40.788533 -111.980747 280 4235ft 0kts
21-Nov-18 07:18 40.788533 -111.980747 280 4235ft 0kts
21-Nov-18 07:19 40.788533 -111.980747 280 4235ft 0kts
21-Nov-18 07:20 40.788533 -111.980747 280 4235ft 0kts
21-Nov-18 07:21 40.788533 -111.980747 280 4235ft 0kts
21-Nov-18 07:22 40.788533 -111.980747 280 4235ft 0kts
21-Nov-18 07:23 40.788533 -111.980747 280 4235ft 0kts
21-Nov-18 07:24 40.788533 -111.980747 280 4235ft 0kts
21-Nov-18 07:25 40.788533 -111.980747 280 4235ft 0kts
21-Nov-18 07:26 40.788533 -111.980747 280 4235ft 0kts
21-Nov-18 07:27 40.788533 -111.980747 280 4235ft 0kts
21-Nov-18 07:28 40.788533 -111.980747 280 4235ft 0kts
21-Nov-18 07:29 40.788533 -111.980747 280 4235ft 0kts
21-Nov-18 07:30 40.788533 -111.980747 280 4235ft 0kts
21-Nov-18 07:31 40.788533 -111.980747 280 4235ft 0kts
21-Nov-18 07:32 40.788533 -111.980747 280 4235ft 0kts
21-Nov-18 07:33 40.788533 -111.980747 280 4235ft 0kts
21-Nov-18 07:34 40.788533 -111.980747 280 4235ft 0kts
21-Nov-18 07:35 40.788533 -111.980747 280 4235ft 0kts
21-Nov-18 07:36 40.788533 -111.980747 280 4235ft 0kts
21-Nov-18 07:37 40.788533 -111.980747 280 4235ft 0kts
21-Nov-18 07:38 40.788533 -111.980747 280 4235ft 0kts
21-Nov-18 07:39 40.788533 -111.980747 280 4235ft 0kts
21-Nov-18 07:40 40.788533 -111.980747 280 4235ft 0kts
21-Nov-18 07:41 40.788533 -111.980747 280 4235ft 0kts
21-Nov-18 07:42 40.788533 -111.980747 280 4235ft 0kts
21-Nov-18 07:43 40.788533 -111.980747 280 4235ft 0kts
21-Nov-18 07:44 40.788533 -111.980747 280 4235ft 0kts
21-Nov-18 07:45 40.788533 -111.980747 280 4235ft 0kts
21-Nov-18 07:46 40.788533 -111.980747 280 4235ft 0kts
21-Nov-18 07:47 40.788533 -111.980747 280 4235ft 0kts
21-Nov-18 07:48 40.788533 -111.980747 280 4235ft 0kts
21-Nov-18 07:49 40.788533 -111.980747 280 4235ft 0kts
21-Nov-18 07:50 40.788533 -111.980747 280 4235ft 0kts
21-Nov-18 07:51 40.788533 -111.980747 280 4235ft 0kts
21-Nov-18 07:52 40.788533 -111.980747 280 4235ft 0kts
21-Nov-18 07:53 40.788499 -111.980511 280 4235ft 2kts
21-Nov-18 07:54 40.788376 -111.979674 280 4235ft 2kts
21-Nov-18 07:55 40.788362 -111.979584 280 4235ft 0kts
21-Nov-18 07:56 40.788362 -111.979584 280 4235ft 0kts
21-Nov-18 07:57 40.788362 -111.979584 280 4235ft 0kts
21-Nov-18 07:58 40.788362 -111.979584 280 4235ft 0kts
21-Nov-18 07:59 40.788362 -111.979584 280 4235ft 0kts
21-Nov-18 08:00 40.788362 -111.979584 280 4235ft 0kts
21-Nov-18 08:01 40.788362 -111.979584 280 4235ft 0kts
21-Nov-18 08:02 40.788363 -111.979586 280 4235ft 0kts
21-Nov-18 08:03 40.789721 -111.978383 87 4235ft 8kts
21-Nov-18 08:04 40.789753 -111.977885 83 4235ft 0kts
21-Nov-18 08:05 40.789753 -111.977883 83 4235ft 0kts
21-Nov-18 08:06 40.789753 -111.977882 83 4235ft 0kts
21-Nov-18 08:07 40.790924 -111.977289 357 4235ft 13kts
21-Nov-18 08:08 40.795063 -111.977730 354 4235ft 16kts
21-Nov-18 08:09 40.799742 -111.978271 354 4235ft 17kts
21-Nov-18 08:10 40.804719 -111.978848 355 4235ft 18kts
21-Nov-18 08:11 40.807551 -111.978536 85 4235ft 0kts
21-Nov-18 08:12 40.807555 -111.978411 88 4235ft 1kts
21-Nov-18 08:13 40.806875 -111.976832 157 4235ft 8kts
21-Nov-18 08:14 40.784315 -111.974214 175 4727ft 182kts
21-Nov-18 08:15 40.724313 -111.982485 220 7578ft 253kts
21-Nov-18 08:16 40.727340 -112.069487 317 10586ft 278kts
21-Nov-18 08:17 40.793918 -112.138637 320 12835ft 340kts
21-Nov-18 08:18 40.873493 -112.220805 320 15449ft 374kts
21-Nov-18 08:19 40.956960 -112.307759 320 18358ft 389kts
21-Nov-18 08:20 41.043328 -112.398106 320 21014ft 402kts
21-Nov-18 08:21 41.137159 -112.482628 326 23339ft 415kts
21-Nov-18 08:22 41.232002 -112.572771 320 25465ft 423kts
21-Nov-18 08:23 41.319206 -112.679096 310 27346ft 429kts
21-Nov-18 08:24 41.400231 -112.798542 311 28964ft 437kts
21-Nov-18 08:25 41.480814 -112.921675 310 30354ft 444kts
21-Nov-18 08:26 41.560650 -113.044673 310 32193ft 436kts
21-Nov-18 08:27 41.639736 -113.166697 310 33845ft 431kts
21-Nov-18 08:28 41.718065 -113.287296 309 35254ft 428kts
21-Nov-18 08:29 41.795711 -113.407763 308 36562ft 425kts
21-Nov-18 08:30 41.872506 -113.527489 308 37740ft 423kts
21-Nov-18 08:31 41.949445 -113.647956 308 38266ft 425kts
21-Nov-18 08:32 42.026019 -113.767865 307 38256ft 421kts
21-Nov-18 08:33 42.101899 -113.887934 307 38231ft 422kts
21-Nov-18 08:34 42.177897 -114.008530 307 38222ft 422kts
21-Nov-18 08:35 42.254074 -114.129287 307 38214ft 422kts
21-Nov-18 08:36 42.317812 -114.229955 307 38209ft 423kts
21-Nov-18 08:37 42.406606 -114.371769 307 38202ft 423kts
21-Nov-18 08:38 42.469940 -114.473437 307 38200ft 424kts
21-Nov-18 08:39 42.560560 -114.614418 308 38199ft 426kts
21-Nov-18 08:40 42.625564 -114.715468 307 38200ft 426kts
21-Nov-18 08:41 42.703668 -114.837491 307 38199ft 427kts
21-Nov-18 08:42 42.781992 -114.959175 307 38207ft 428kts
21-Nov-18 08:43 42.860468 -115.082107 307 38209ft 429kts
21-Nov-18 08:44 42.951700 -115.225898 307 38208ft 430kts
21-Nov-18 08:45 43.016805 -115.328976 306 38204ft 430kts
21-Nov-18 08:46 43.094849 -115.453056 306 38196ft 431kts
21-Nov-18 08:47 43.172982 -115.577810 306 38194ft 432kts
21-Nov-18 08:48 43.251055 -115.703011 306 38194ft 432kts
21-Nov-18 08:49 43.326133 -115.823927 306 38195ft 433kts
21-Nov-18 08:50 43.405723 -115.952138 306 38198ft 434kts
21-Nov-18 08:51 43.483895 -116.079416 305 38199ft 436kts
21-Nov-18 08:52 43.563754 -116.205273 312 38200ft 440kts
21-Nov-18 08:53 43.655541 -116.317825 313 38204ft 442kts
21-Nov-18 08:54 43.747476 -116.430690 313 38213ft 441kts
21-Nov-18 08:55 43.839150 -116.543466 313 38224ft 442kts
21-Nov-18 08:56 43.931035 -116.656558 313 38237ft 442kts
21-Nov-18 08:57 44.023218 -116.770840 313 38249ft 444kts
21-Nov-18 08:58 44.115314 -116.885612 312 38253ft 445kts
21-Nov-18 08:59 44.207251 -117.000727 312 38250ft 446kts
21-Nov-18 09:00 44.298109 -117.118501 304 38235ft 441kts
21-Nov-18 09:01 44.350360 -117.267987 285 38222ft 427kts
21-Nov-18 09:02 44.391865 -117.423921 284 38202ft 427kts
21-Nov-18 09:03 44.432987 -117.579676 284 38176ft 427kts
21-Nov-18 09:04 44.472816 -117.736426 283 38157ft 427kts
21-Nov-18 09:05 44.512961 -117.893288 284 38142ft 427kts
21-Nov-18 09:06 44.553465 -118.049730 283 38133ft 428kts
21-Nov-18 09:07 44.593982 -118.206968 283 38124ft 429kts
21-Nov-18 09:08 44.634256 -118.364320 283 38111ft 428kts
21-Nov-18 09:09 44.672977 -118.522609 281 38098ft 428kts
21-Nov-18 09:10 44.712176 -118.681101 282 38087ft 429kts
21-Nov-18 09:11 44.750656 -118.839535 281 38080ft 429kts
21-Nov-18 09:12 44.788985 -118.998779 280 38064ft 429kts
21-Nov-18 09:13 44.827254 -119.158117 280 38054ft 428kts
21-Nov-18 09:14 44.865478 -119.317400 280 38051ft 429kts
21-Nov-18 09:15 44.902645 -119.477318 280 38064ft 429kts
21-Nov-18 09:16 44.940713 -119.637348 280 38065ft 430kts
21-Nov-18 09:17 44.978677 -119.797606 280 38065ft 430kts
21-Nov-18 09:18 45.017044 -119.957992 280 38066ft 431kts
21-Nov-18 09:19 45.056879 -120.118274 286 37994ft 442kts
21-Nov-18 09:20 45.111246 -120.274277 280 35589ft 431kts
21-Nov-18 09:21 45.148348 -120.438695 279 31406ft 457kts
21-Nov-18 09:22 45.200261 -120.608363 292 25601ft 477kts
21-Nov-18 09:23 45.263289 -120.769477 292 21622ft 443kts
21-Nov-18 09:24 45.317656 -120.911314 291 20935ft 385kts
21-Nov-18 09:25 45.367652 -121.042947 291 19349ft 372kts
21-Nov-18 09:26 45.417045 -121.172992 291 18164ft 372kts
21-Nov-18 09:27 45.449595 -121.307557 278 16696ft 352kts
21-Nov-18 09:28 45.474737 -121.436654 279 15437ft 327kts
21-Nov-18 09:29 45.499201 -121.559984 279 13991ft 319kts
21-Nov-18 09:30 45.522420 -121.678743 278 12969ft 296kts
21-Nov-18 09:31 45.532675 -121.790389 266 12038ft 277kts
21-Nov-18 09:32 45.536228 -121.900380 266 11132ft 279kts
21-Nov-18 09:33 45.548846 -122.010517 281 10212ft 288kts
21-Nov-18 09:34 45.572215 -122.119987 280 9272ft 282kts
21-Nov-18 09:35 45.593614 -122.223088 280 8601ft 258kts
21-Nov-18 09:36 45.613667 -122.320229 281 7482ft 249kts
21-Nov-18 09:37 45.632708 -122.412747 282 6495ft 236kts
21-Nov-18 09:38 45.654800 -122.497666 295 5562ft 223kts
21-Nov-18 09:39 45.684388 -122.578463 295 4077ft 235kts
21-Nov-18 09:40 45.714508 -122.661572 296 3014ft 221kts
21-Nov-18 09:41 45.738470 -122.733825 263 2926ft 192kts
21-Nov-18 09:42 45.702779 -122.783541 211 3001ft 182kts
21-Nov-18 09:43 45.680663 -122.753427 45 2958ft 180kts
21-Nov-18 09:44 45.697662 -122.786301 207 1574ft 169kts
21-Nov-18 09:45 45.674910 -122.747234 141 1369ft 147kts
21-Nov-18 09:46 45.645636 -122.706003 133 1403ft 148kts
21-Nov-18 09:47 45.620043 -122.660769 118 1046ft 148kts
21-Nov-18 09:48 45.600231 -122.609506 116 261ft 144kts
21-Nov-18 09:49 45.586919 -122.575872 196 26ft 14kts
21-Nov-18 09:50 45.586255 -122.576431 241 26ft 0kts
21-Nov-18 09:51 45.586282 -122.576913 295 26ft 0kts
21-Nov-18 09:52 45.587346 -122.579629 297 26ft 21kts
21-Nov-18 09:53 45.590014 -122.586276 295 26ft 16kts
21-Nov-18 09:54 45.590503 -122.590352 297 26ft 14kts
21-Nov-18 09:55 45.591541 -122.593920 224 26ft 5kts
21-Nov-18 09:56 45.591268 -122.594136 204 26ft 0kts
21-Nov-18 09:57 45.591267 -122.594136 204 26ft 0kts
21-Nov-18 09:58 45.591267 -122.594136 204 26ft 0kts
21-Nov-18 09:59 45.591267 -122.594136 204 26ft 0kts
21-Nov-18 10:00 45.591267 -122.594136 204 26ft 0kts
21-Nov-18 10:01 45.591267 -122.594136 204 26ft 0kts
21-Nov-18 10:02 45.591267 -122.594136 204 26ft 0kts
21-Nov-18 10:03 45.591267 -122.594136 204 26ft 0kts

Navigation Log

Ident Type
Flight plan parsing failed, navigation log unavailable